Metropolis, IL

3:46 PM CDT on July 26, 2016 (GMT -0500)
Grahamville | | Change Station
Active Advisory: Special Statement

Elev 390 ft 37.11 °N, 88.78 °W | Updated 3 minutes ago

Mostly Cloudy
Mostly Cloudy
88.9 °F
Feels Like 102 °F
N
11.0
Wind Variable Wind from WNW
Gusts 20.0 mph

Today
High -- | Low -- °F
--% Chance of Precip.
Yesterday
High -- | Low -- °F
Precip. -- in
Pressure 29.98 in
Visibility 10.0 miles
Clouds Scattered Clouds 3900 ft
Scattered Clouds 5000 ft
Mostly Cloudy 10000 ft
Heat Index 102 °F
Dew Point 78 °F
Humidity 69%
Rainfall 0.00 in
Snow Depth Not available.
5:55 AM 8:07 PM
Waning Gibbous, 51% visible
METAR KM30 262035Z AUTO 34011G14KT 10SM VCTS SCT039 SCT050 BKN100 29/24 A2998 RMK AO2 LTG DSNT W THRU NE T02900238
Pressure 29.98 in
Visibility 10.0 miles
Clouds Scattered Clouds 3900 ft
Scattered Clouds 5000 ft
Mostly Cloudy 10000 ft
Heat Index 102 °F
Dew Point 78 °F
Humidity 69%
Rainfall 0.00 in
Snow Depth Not available.
5:55 AM 8:07 PM
Waning Gibbous, 51% visible
METAR KM30 262035Z AUTO 34011G14KT 10SM VCTS SCT039 SCT050 BKN100 29/24 A2998 RMK AO2 LTG DSNT W THRU NE T02900238

10-Day Weather Forecast

Almanac

Astronomy

Jul. 26, 2016 Rise Set
Actual Time
Civil Twilight
Nautical Twilight
Astronomical Twilight
Moon
Length of Visible Light
Length of Day
Tomorrow will be .
, % of the Moon is Illuminated

Today's Extremes

State Highs State Lows

Community

WunderPhotos

Upload Photos

1,927,678 photos uploaded!

WunderBlog® & News

Nearby

Air Quality

  Air Quality AQ Index Pollutant
Not available.

Snow Depth

Station Depth Elevation

Earthquake Activity

City Distance Mag. Time & Date
Minimum magnitude displayed is 2.5.

Coastal Water Temperatures

Place Temperature

Stations

Nearby Weather Stations

Station Location Temp. Windchill Dew Point Humidity Wind Precip. Elev Updated Type
                   

Watches & Warnings

Special Statement
Issued: 10:47 AM CDT Jul. 26, 2016 – National Weather Service

... Heat and humidity will produce heat indices above 100 today...

High temperatures in the lower 90s combined with dewpoints in the
middle 70s will produce heat indices of 100 to 105 this afternoon.
Isolated showers and thunderstorms may provide temporary relief
for some communities this afternoon.


1047 am CDT Tue Jul 26 2016

... Heat and humidity will produce heat indices above 100 today...

High temperatures in the lower 90s combined with dewpoints in the
middle 70s will produce heat indices of 100 to 105 this afternoon.
Isolated showers and thunderstorms may provide temporary relief
for some communities this afternoon.